Terminal Aerodrome Forecast
Issued by NWS

Home | Current Version | Previous Version | Graphics & Text | Print | Product List | Glossary Off
Versions: 1 2 3 4 5 6 7 8 9 10 11 12 13 14 15 16 17

000
FTUS43 KMPX 011730
TAFAXN
TAF
KAXN 011730Z 0118/0218 10005KT P6SM FEW006
     FM011830 13008KT P6SM SCT250
     FM020900 12004KT 1/4SM FG VV002
     FM021600 12005KT 3SM BR OVC005
     FM021700 14006KT P6SM BKN007=

USA.gov is the U.S. government's official web portal to all federal, state and local government web resources and services.